createdAt,value
2019-01-04T00:01:48.645Z,5.63
2019-01-04T00:04:32.417Z,3.67
2019-01-04T00:07:14.226Z,3.73
2019-01-04T00:09:58.346Z,2.63
2019-01-04T00:12:40.305Z,4.22
2019-01-04T00:15:22.053Z,4.53
2019-01-04T00:18:05.977Z,2.93
2019-01-04T00:20:47.896Z,3.97
2019-01-04T00:23:29.734Z,4.27
2019-01-04T00:26:11.926Z,4.63
2019-01-04T00:28:54.045Z,5.12
2019-01-04T00:31:36.931Z,6.30
2019-01-04T00:34:19.044Z,3.07
2019-01-04T00:37:00.720Z,4.70
2019-01-04T00:39:42.541Z,4.40
2019-01-04T00:42:26.812Z,3.83
2019-01-04T00:45:10.793Z,3.30
2019-01-04T00:47:52.939Z,3.47
2019-01-04T00:50:34.860Z,4.63
2019-01-04T00:53:18.792Z,3.30
2019-01-04T00:56:00.652Z,2.03
2019-01-04T00:58:42.628Z,5.60
2019-01-04T01:01:24.771Z,3.00
2019-01-04T01:04:08.812Z,4.13
2019-01-04T01:06:52.980Z,2.43
2019-01-04T01:09:37.356Z,2.37
2019-01-04T01:12:19.150Z,4.87
2019-01-04T01:15:03.257Z,3.20
2019-01-04T01:17:47.294Z,3.30
2019-01-04T01:20:31.423Z,2.77
2019-01-04T01:23:15.437Z,3.40
2019-01-04T01:25:57.245Z,3.17
2019-01-04T01:28:39.296Z,3.07
2019-01-04T01:34:06.756Z,4.27
2019-01-04T01:36:48.719Z,3.57
2019-01-04T01:39:30.877Z,4.50
2019-01-04T01:42:13.355Z,4.97
2019-01-04T01:44:55.504Z,2.00
2019-01-04T01:47:39.497Z,2.17
2019-01-04T01:50:23.390Z,3.70
2019-01-04T01:53:07.432Z,4.23
2019-01-04T01:55:51.505Z,2.00
2019-01-04T01:58:35.815Z,3.30
2019-01-04T02:01:18.181Z,5.90
2019-01-04T02:04:00.074Z,3.53
2019-01-04T02:06:43.375Z,6.23
2019-01-04T02:09:25.497Z,2.50
2019-01-04T02:12:08.442Z,3.63
2019-01-04T02:14:50.524Z,3.87
2019-01-04T02:17:32.877Z,2.47
2019-01-04T02:20:14.689Z,4.60
2019-01-04T02:22:56.652Z,3.77
2019-01-04T02:25:38.858Z,3.10
2019-01-04T02:28:20.776Z,3.87
2019-01-04T02:31:02.835Z,3.87
2019-01-04T02:33:44.649Z,4.28
2019-01-04T02:36:26.851Z,2.57
2019-01-04T02:39:08.892Z,5.23
2019-01-04T02:41:53.136Z,4.40
2019-01-04T02:44:35.185Z,3.70
2019-01-04T02:47:19.280Z,6.27
2019-01-04T02:50:03.642Z,3.73
2019-01-04T02:52:47.727Z,3.43
2019-01-04T02:55:29.627Z,3.57
2019-01-04T02:58:13.632Z,4.80
2019-01-04T03:00:55.649Z,3.53
2019-01-04T03:03:37.774Z,3.67
2019-01-04T03:06:19.787Z,3.83
2019-01-04T03:11:46.932Z,2.43
2019-01-04T03:14:28.913Z,3.17
2019-01-04T03:17:10.822Z,3.80
2019-01-04T03:19:55.136Z,3.60
2019-01-04T03:22:37.583Z,3.57
2019-01-04T03:25:21.510Z,6.13
2019-01-04T03:28:03.525Z,2.10
2019-01-04T03:30:45.521Z,4.93
2019-01-04T03:33:27.782Z,2.80
2019-01-04T03:36:12.046Z,3.13
2019-01-04T03:38:56.100Z,5.07
2019-01-04T03:41:39.825Z,3.27
2019-01-04T03:44:22.558Z,3.90
2019-01-04T03:47:04.735Z,7.10
2019-01-04T03:49:46.861Z,3.13
2019-01-04T03:52:31.288Z,4.27
2019-01-04T03:55:15.410Z,4.63
2019-01-04T03:57:59.580Z,1.87
2019-01-04T04:00:41.905Z,2.97
2019-01-04T04:03:24.223Z,4.07
2019-01-04T04:06:07.044Z,6.67
2019-01-04T04:08:49.117Z,2.47
2019-01-04T04:11:31.112Z,3.80
2019-01-04T04:14:13.318Z,2.13
2019-01-04T04:16:56.241Z,3.70
2019-01-04T04:19:38.319Z,3.47
2019-01-04T04:22:21.595Z,1.90
2019-01-04T04:25:05.415Z,6.70
2019-01-04T04:27:47.336Z,4.23
2019-01-04T04:30:31.518Z,3.17
2019-01-04T04:33:15.910Z,3.70
2019-01-04T04:35:57.756Z,3.60
2019-01-04T04:38:40.537Z,3.87
2019-01-04T04:41:22.556Z,6.17
2019-01-04T04:44:05.818Z,6.23
2019-01-04T04:49:30.662Z,3.37
2019-01-04T04:52:12.593Z,4.30
2019-01-04T04:54:54.611Z,5.03
2019-01-04T04:57:36.657Z,6.13
2019-01-04T05:00:18.741Z,3.70
2019-01-04T05:03:00.888Z,3.60
2019-01-04T05:05:43.060Z,5.50
2019-01-04T05:08:25.441Z,6.70
2019-01-04T05:11:07.537Z,5.83
2019-01-04T05:13:51.742Z,5.95
2019-01-04T05:16:34.149Z,7.23
2019-01-04T05:21:57.841Z,4.67
2019-01-04T05:24:39.817Z,5.10
2019-01-04T05:27:22.743Z,3.70
2019-01-04T05:30:04.722Z,4.17
2019-01-04T05:32:47.074Z,3.80
2019-01-04T05:35:29.067Z,4.73
2019-01-04T05:38:11.646Z,2.87
2019-01-04T05:40:53.588Z,2.87
2019-01-04T05:43:35.605Z,3.93
2019-01-04T05:46:17.673Z,4.37
2019-01-04T05:48:59.727Z,4.93
2019-01-04T05:51:41.894Z,6.40
2019-01-04T05:54:24.536Z,8.23
2019-01-04T05:57:06.455Z,4.93
2019-01-04T05:59:49.434Z,3.90
2019-01-04T06:02:33.572Z,4.60
2019-01-04T06:05:15.902Z,4.90
2019-01-04T06:07:57.977Z,5.03
2019-01-04T06:10:39.726Z,5.83
2019-01-04T06:13:21.781Z,4.93
2019-01-04T06:16:04.037Z,2.57
2019-01-04T06:18:45.991Z,3.47
2019-01-04T06:21:28.149Z,2.93
2019-01-04T06:24:10.434Z,5.40
2019-01-04T06:26:52.545Z,2.67
2019-01-04T06:29:34.888Z,5.07
2019-01-04T06:32:16.655Z,2.50
2019-01-04T06:35:00.897Z,4.65
2019-01-04T06:37:42.693Z,6.77
2019-01-04T06:40:26.943Z,3.93
2019-01-04T06:43:10.993Z,6.30
2019-01-04T06:45:55.521Z,4.30
2019-01-04T06:48:37.313Z,7.20
2019-01-04T06:54:02.645Z,4.00
2019-01-04T06:56:44.589Z,3.83
2019-01-04T06:59:26.877Z,6.30
2019-01-04T07:02:08.609Z,7.97
2019-01-04T07:04:51.065Z,6.17
2019-01-04T07:07:35.228Z,5.17
2019-01-04T07:10:18.240Z,7.80
2019-01-04T07:13:00.386Z,4.27
2019-01-04T07:15:43.438Z,6.63
2019-01-04T07:18:27.168Z,4.83
2019-01-04T07:21:09.031Z,6.33
2019-01-04T07:23:51.247Z,4.60
2019-01-04T07:26:33.201Z,5.97
2019-01-04T07:29:15.142Z,6.20
2019-01-04T07:31:57.451Z,6.90
2019-01-04T07:34:41.410Z,5.83
2019-01-04T07:37:23.560Z,5.10
2019-01-04T07:40:05.562Z,5.47
2019-01-04T07:42:47.629Z,4.43
2019-01-04T07:45:29.234Z,4.43
2019-01-04T07:48:10.866Z,6.97
2019-01-04T07:50:52.864Z,4.90
2019-01-04T07:53:35.959Z,5.90
2019-01-04T07:56:17.680Z,4.33
2019-01-04T07:58:59.616Z,4.93
2019-01-04T08:01:42.001Z,5.93
2019-01-04T08:04:24.814Z,3.77
2019-01-04T08:07:06.680Z,5.50
2019-01-04T08:09:48.572Z,5.50
2019-01-04T08:12:30.393Z,6.25
2019-01-04T08:15:13.276Z,7.10
2019-01-04T08:17:55.571Z,6.53
2019-01-04T08:20:37.448Z,5.83
2019-01-04T08:23:19.510Z,6.27
2019-01-04T08:26:01.397Z,8.15
2019-01-04T08:28:43.252Z,7.97
2019-01-04T08:31:27.056Z,5.70
2019-01-04T08:34:11.117Z,4.87
2019-01-04T08:36:53.878Z,6.00
2019-01-04T08:39:35.811Z,5.50
2019-01-04T08:42:17.615Z,6.73
2019-01-04T08:44:59.824Z,5.10
2019-01-04T08:47:41.941Z,4.73
2019-01-04T08:50:23.537Z,6.30
2019-01-04T08:53:06.422Z,5.27
2019-01-04T08:55:50.021Z,5.60
2019-01-04T08:58:32.123Z,10.20
2019-01-04T09:01:13.937Z,5.80
2019-01-04T09:03:55.815Z,10.27
2019-01-04T09:06:37.713Z,6.33
2019-01-04T09:09:20.698Z,5.67
2019-01-04T09:12:05.527Z,4.47
2019-01-04T09:14:47.408Z,5.73
2019-01-04T09:17:29.386Z,4.87
2019-01-04T09:20:12.006Z,5.07
2019-01-04T09:22:55.930Z,5.07
2019-01-04T09:25:37.951Z,5.80
2019-01-04T09:28:21.981Z,5.00
2019-01-04T09:31:03.941Z,4.50
2019-01-04T09:33:45.842Z,5.03
2019-01-04T09:36:27.883Z,4.67
2019-01-04T09:39:10.027Z,8.17
2019-01-04T09:41:52.297Z,3.90
2019-01-04T09:44:36.775Z,4.63
2019-01-04T09:47:18.291Z,5.90
2019-01-04T09:50:00.326Z,6.37
2019-01-04T09:52:42.856Z,7.90
2019-01-04T09:58:08.411Z,7.17
2019-01-04T10:00:50.345Z,5.87
2019-01-04T10:03:32.689Z,6.72
2019-01-04T10:06:16.493Z,5.73
2019-01-04T10:08:58.765Z,5.73
2019-01-04T10:11:41.030Z,7.57
2019-01-04T10:14:24.091Z,5.47
2019-01-04T10:17:08.241Z,5.83
2019-01-04T10:23:17.639Z,5.17
2019-01-04T10:26:01.510Z,3.50
2019-01-04T10:28:44.284Z,5.30
2019-01-04T10:31:28.195Z,5.57
2019-01-04T10:34:10.174Z,5.37
2019-01-04T10:36:52.229Z,5.80
2019-01-04T10:39:34.230Z,5.00
2019-01-04T10:42:16.284Z,8.17
2019-01-04T10:44:58.180Z,4.87
2019-01-04T10:47:40.070Z,5.03
2019-01-04T10:50:22.074Z,5.47
2019-01-04T10:53:05.975Z,5.40
2019-01-04T10:55:50.122Z,6.40
2019-01-04T10:58:32.139Z,4.47
2019-01-04T11:01:14.421Z,6.50
2019-01-04T11:03:56.794Z,6.23
2019-01-04T11:06:38.705Z,14.57
2019-01-04T11:09:20.985Z,3.53
2019-01-04T11:12:04.401Z,8.77
2019-01-04T11:14:46.128Z,5.17
2019-01-04T11:17:28.141Z,5.10
2019-01-04T11:20:10.127Z,5.10
2019-01-04T11:22:52.062Z,3.63
2019-01-04T11:25:37.558Z,4.50
2019-01-04T11:28:21.579Z,8.23
2019-01-04T11:31:03.528Z,8.70
2019-01-04T11:33:45.514Z,7.30
2019-01-04T11:36:29.287Z,4.10
2019-01-04T11:39:11.213Z,11.35
2019-01-04T11:41:53.223Z,16.13
2019-01-04T11:44:35.284Z,11.30
2019-01-04T11:47:20.167Z,9.20
2019-01-04T11:50:01.257Z,7.17
2019-01-04T11:52:42.918Z,19.53
2019-01-04T11:55:26.202Z,8.23
2019-01-04T11:58:09.786Z,14.57
2019-01-04T12:00:51.933Z,23.63
2019-01-04T12:03:33.869Z,12.93
2019-01-04T12:06:15.693Z,12.90
2019-01-04T12:08:57.810Z,7.73
2019-01-04T12:11:39.628Z,12.40
2019-01-04T12:14:23.132Z,13.78
2019-01-04T12:17:07.262Z,17.07
2019-01-04T12:19:49.589Z,6.97
2019-01-04T12:22:31.960Z,4.10
2019-01-04T12:25:14.023Z,6.80
2019-01-04T12:27:56.237Z,11.90
2019-01-04T12:30:38.289Z,8.33
2019-01-04T12:33:20.357Z,17.53
2019-01-04T12:36:02.537Z,6.43
2019-01-04T12:38:44.770Z,13.50
2019-01-04T12:41:29.125Z,14.07
2019-01-04T12:44:10.907Z,7.93
2019-01-04T12:46:52.857Z,7.97
2019-01-04T12:49:35.694Z,8.47
2019-01-04T12:52:17.704Z,7.23
2019-01-04T12:54:59.860Z,8.77
2019-01-04T12:57:42.028Z,11.13
2019-01-04T13:00:24.194Z,7.90
2019-01-04T13:03:08.417Z,11.43
2019-01-04T13:05:52.982Z,13.13
2019-01-04T13:08:35.427Z,7.60
2019-01-04T13:11:18.119Z,8.57
2019-01-04T13:13:59.987Z,11.60
2019-01-04T13:16:41.851Z,11.47
2019-01-04T13:19:25.724Z,14.00
2019-01-04T13:22:07.534Z,11.93
2019-01-04T13:24:51.604Z,7.92
2019-01-04T13:27:33.850Z,8.93
2019-01-04T13:30:18.252Z,10.67
2019-01-04T13:33:00.424Z,10.00
2019-01-04T13:35:42.474Z,9.13
2019-01-04T13:38:24.607Z,7.90
2019-01-04T13:41:06.807Z,9.00
2019-01-04T13:43:48.760Z,11.97
2019-01-04T13:46:30.711Z,10.37
2019-01-04T13:49:12.682Z,7.77
2019-01-04T13:51:54.910Z,10.03
2019-01-04T13:54:37.023Z,8.13
2019-01-04T13:57:18.953Z,7.07
2019-01-04T14:00:01.149Z,7.07
2019-01-04T14:02:43.892Z,8.83
2019-01-04T14:05:25.709Z,7.50
2019-01-04T14:08:07.366Z,6.90
2019-01-04T14:10:50.238Z,10.70
2019-01-04T14:13:31.972Z,10.27
2019-01-04T14:16:13.800Z,6.12
2019-01-04T14:18:57.516Z,8.93
2019-01-04T14:21:39.614Z,7.93
2019-01-04T14:24:21.676Z,39.33
2019-01-04T14:27:03.506Z,42.30
2019-01-04T14:29:45.693Z,13.33
2019-01-04T14:32:27.981Z,7.33
2019-01-04T14:35:11.835Z,6.60
2019-01-04T14:37:53.795Z,7.90
2019-01-04T14:40:36.612Z,8.87
2019-01-04T14:43:18.875Z,9.03
2019-01-04T14:46:00.918Z,6.80
2019-01-04T14:48:42.917Z,7.57
2019-01-04T14:51:25.004Z,8.47
2019-01-04T14:54:07.035Z,9.53
2019-01-04T14:56:48.886Z,9.20
2019-01-04T14:59:31.827Z,13.75
2019-01-04T15:02:15.862Z,13.63
2019-01-04T15:04:57.751Z,10.40
2019-01-04T15:07:39.542Z,12.17
2019-01-04T15:10:22.066Z,14.70
2019-01-04T15:13:04.216Z,13.37
2019-01-04T15:15:47.226Z,12.97
2019-01-04T15:18:29.152Z,11.13
2019-01-04T15:21:11.025Z,14.40
2019-01-04T15:23:55.084Z,16.10
2019-01-04T15:26:39.236Z,15.03
2019-01-04T15:29:22.957Z,15.53
2019-01-04T15:32:04.949Z,14.87
2019-01-04T15:34:46.892Z,12.20
2019-01-04T15:37:28.972Z,16.17
2019-01-04T15:40:10.957Z,16.60
2019-01-04T15:42:52.812Z,14.37
2019-01-04T15:45:35.803Z,17.13
2019-01-04T15:48:18.135Z,12.87
2019-01-04T15:51:00.008Z,12.70
2019-01-04T15:53:42.209Z,11.70
2019-01-04T15:56:23.994Z,14.20
2019-01-04T15:59:05.980Z,13.57
2019-01-04T16:01:49.792Z,14.63
2019-01-04T16:04:33.734Z,14.40
2019-01-04T16:07:17.817Z,13.27
2019-01-04T16:10:03.526Z,15.00
2019-01-04T16:12:45.576Z,11.17
2019-01-04T16:15:27.572Z,12.10
2019-01-04T16:18:09.747Z,13.13
2019-01-04T16:20:51.757Z,14.47
2019-01-04T16:23:33.533Z,14.87
2019-01-04T16:26:15.725Z,17.60
2019-01-04T16:28:59.829Z,17.70
2019-01-04T16:31:43.867Z,22.37
2019-01-04T16:34:25.810Z,15.17
2019-01-04T16:37:08.763Z,16.70
2019-01-04T16:39:52.470Z,16.25
2019-01-04T16:42:35.303Z,14.90
2019-01-04T16:45:17.365Z,13.75
2019-01-04T16:47:59.724Z,16.52
2019-01-04T16:50:43.795Z,15.10
2019-01-04T16:53:27.597Z,17.20
2019-01-04T16:56:09.490Z,11.50
2019-01-04T16:58:52.078Z,12.77
2019-01-04T17:01:36.200Z,11.73
2019-01-04T17:04:20.267Z,15.00
2019-01-04T17:07:04.460Z,16.47
2019-01-04T17:09:46.199Z,13.67
2019-01-04T17:12:30.076Z,12.67
2019-01-04T17:15:14.126Z,14.37
2019-01-04T17:17:59.749Z,12.50
2019-01-04T17:20:41.646Z,16.83
2019-01-04T17:23:23.580Z,17.43
2019-01-04T17:26:06.593Z,14.07
2019-01-04T17:28:50.895Z,19.02
2019-01-04T17:31:33.069Z,15.37
2019-01-04T17:34:17.037Z,17.80
2019-01-04T17:37:01.107Z,15.17
2019-01-04T17:39:43.416Z,17.23
2019-01-04T17:42:25.769Z,15.73
2019-01-04T17:45:09.875Z,16.27
2019-01-04T17:47:53.777Z,15.37
2019-01-04T17:50:37.817Z,16.67
2019-01-04T17:53:20.468Z,14.43
2019-01-04T17:56:02.334Z,18.57
2019-01-04T17:58:44.424Z,17.10
2019-01-04T18:04:07.201Z,17.20
2019-01-04T18:06:51.356Z,16.77
2019-01-04T18:09:35.310Z,14.43
2019-01-04T18:12:19.219Z,19.53
2019-01-04T18:15:02.584Z,14.50
2019-01-04T18:17:46.119Z,15.72
2019-01-04T18:20:28.244Z,17.20
2019-01-04T18:23:10.262Z,18.33
2019-01-04T18:25:52.351Z,12.70
2019-01-04T18:28:34.401Z,14.30
2019-01-04T18:31:16.416Z,12.53
2019-01-04T18:33:58.332Z,11.50
2019-01-04T18:36:41.374Z,12.70
2019-01-04T18:39:25.336Z,9.60
2019-01-04T18:42:08.341Z,11.73
2019-01-04T18:44:52.332Z,10.00
2019-01-04T18:47:39.294Z,11.10
2019-01-04T18:50:22.254Z,10.90
2019-01-04T18:53:03.942Z,9.47
2019-01-04T18:55:45.972Z,13.07
2019-01-04T18:58:27.599Z,11.07
2019-01-04T19:01:13.757Z,11.70
2019-01-04T19:03:55.440Z,11.50
2019-01-04T19:06:37.084Z,14.98
2019-01-04T19:09:19.998Z,12.17
2019-01-04T19:12:03.991Z,12.83
2019-01-04T19:14:46.729Z,11.77
2019-01-04T19:17:28.453Z,12.43
2019-01-04T19:20:10.354Z,12.90
2019-01-04T19:22:52.306Z,11.57
2019-01-04T19:25:35.479Z,11.77
2019-01-04T19:28:17.506Z,15.63
2019-01-04T19:30:59.249Z,9.53
2019-01-04T19:33:43.518Z,11.77
2019-01-04T19:36:25.522Z,8.37
2019-01-04T19:39:08.805Z,10.95
2019-01-04T19:41:50.838Z,11.60
2019-01-04T19:44:32.945Z,10.30
2019-01-04T19:47:14.800Z,10.07
2019-01-04T19:49:56.938Z,9.53
2019-01-04T19:52:39.078Z,10.33
2019-01-04T19:55:20.874Z,10.05
2019-01-04T19:58:03.141Z,11.03
2019-01-04T20:00:45.347Z,9.27
2019-01-04T20:03:27.308Z,10.80
2019-01-04T20:06:23.569Z,8.10
2019-01-04T20:09:06.326Z,8.87
2019-01-04T20:14:54.062Z,10.17
2019-01-04T20:17:56.418Z,10.17
2019-01-04T20:20:58.174Z,9.40
2019-01-04T20:29:36.156Z,12.30
2019-01-04T20:32:39.798Z,11.03
2019-01-04T20:35:40.898Z,11.23
2019-01-04T20:41:48.056Z,12.27
2019-01-04T20:44:45.999Z,11.35
2019-01-04T20:47:47.385Z,10.50
2019-01-04T20:50:51.652Z,9.20
2019-01-04T20:53:34.762Z,9.87
2019-01-04T20:56:37.663Z,11.87
2019-01-04T20:59:39.117Z,11.53
2019-01-04T21:02:41.590Z,9.10
2019-01-04T21:05:45.725Z,9.63
2019-01-04T21:08:49.645Z,9.60
2019-01-04T21:11:51.394Z,9.70
2019-01-04T21:14:53.013Z,10.23
2019-01-04T21:20:41.090Z,10.00
2019-01-04T21:26:45.450Z,10.63
2019-01-04T21:29:51.979Z,9.07
2019-01-04T21:35:40.374Z,9.95
2019-01-04T21:38:44.286Z,10.17
2019-01-04T21:41:51.295Z,12.53
2019-01-04T21:44:39.961Z,12.07
2019-01-04T21:47:43.987Z,9.00
2019-01-04T21:50:46.914Z,11.07
2019-01-04T21:53:50.824Z,9.30
2019-01-04T21:56:55.696Z,9.10
2019-01-04T21:59:59.701Z,10.87
2019-01-04T22:03:03.826Z,9.13
2019-01-04T22:06:05.277Z,10.23
2019-01-04T22:08:54.393Z,12.15
2019-01-04T22:11:57.542Z,10.63
2019-01-04T22:15:00.228Z,10.87
2019-01-04T22:18:03.377Z,8.83
2019-01-04T22:21:07.971Z,11.13
2019-01-04T22:24:12.098Z,9.43
2019-01-04T22:27:19.009Z,10.97
2019-01-04T22:30:18.090Z,10.10
2019-01-04T22:36:30.757Z,10.50
2019-01-04T22:45:25.593Z,9.00
2019-01-04T22:51:14.009Z,10.20
2019-01-04T22:54:14.972Z,12.53
2019-01-04T22:57:03.714Z,11.63
2019-01-04T23:00:02.318Z,12.05
2019-01-04T23:03:05.010Z,10.97
2019-01-04T23:06:06.768Z,10.43
2019-01-04T23:08:49.538Z,9.60
2019-01-04T23:11:52.377Z,8.40
2019-01-04T23:14:56.205Z,11.00
2019-01-04T23:18:00.243Z,10.63
2019-01-04T23:23:48.461Z,8.03
2019-01-04T23:29:36.625Z,9.80
2019-01-04T23:35:40.135Z,11.53
2019-01-04T23:42:03.459Z,10.27
2019-01-04T23:45:07.395Z,9.63
2019-01-04T23:48:08.557Z,10.93
2019-01-04T23:51:09.537Z,10.60
2019-01-04T23:54:16.188Z,10.67
